Time;durP1;ratioP1;P1;durP2;ratioP2;P2;SDS_P1;SDS_P2;PMS_P1;PMS_P2;Temp;Humidity;BMP_temperature;BMP_pressure;BME280_temperature;BME280_humidity;BME280_pressure;Samples;Min_cycle;Max_cycle;Signal;HPM_P1;HPM_P2
2024/01/21 00:00:20;;;;;;;11.00;7.40;;;;;;;-1.27;100.00;101827.48;106040;1252;63642;-76
2024/01/21 00:02:48;;;;;;;13.50;8.70;;;;;;;-1.33;100.00;101824.52;106201;1253;72389;-76
2024/01/21 00:05:15;;;;;;;15.40;9.00;;;;;;;-1.38;100.00;101833.38;106127;1253;61081;-76
2024/01/21 00:07:42;;;;;;;15.40;10.10;;;;;;;-1.42;100.00;101834.71;106080;1251;60591;-73
2024/01/21 00:10:09;;;;;;;22.00;11.90;;;;;;;-1.48;100.00;101833.46;106139;1253;73036;-74
2024/01/21 00:12:37;;;;;;;15.50;11.30;;;;;;;-1.52;100.00;101840.64;106132;1254;63812;-75
2024/01/21 00:15:04;;;;;;;17.70;10.80;;;;;;;-1.57;100.00;101842.81;106133;1251;72758;-75
2024/01/21 00:17:31;;;;;;;24.00;11.80;;;;;;;-1.60;100.00;101843.64;106080;1253;61014;-74
2024/01/21 00:19:59;;;;;;;27.40;13.50;;;;;;;-1.62;100.00;101835.39;106187;1251;60507;-75
2024/01/21 00:22:26;;;;;;;29.90;14.00;;;;;;;-1.63;100.00;101832.29;106075;1250;73835;-75
2024/01/21 00:24:53;;;;;;;23.70;11.90;;;;;;;-1.66;100.00;101832.95;105987;1253;63737;-75
2024/01/21 00:27:20;;;;;;;18.10;11.30;;;;;;;-1.70;100.00;101826.22;106063;1251;72300;-76
2024/01/21 00:29:47;;;;;;;25.00;12.30;;;;;;;-1.74;100.00;101825.33;106052;1250;62058;-74
2024/01/21 00:32:15;;;;;;;24.70;13.40;;;;;;;-1.77;100.00;101824.09;106084;1250;60539;-75
2024/01/21 00:34:42;;;;;;;28.50;14.30;;;;;;;-1.81;100.00;101819.59;106066;1251;72233;-75
2024/01/21 00:37:09;;;;;;;29.50;15.50;;;;;;;-1.85;100.00;101818.52;106129;1253;63905;-76
2024/01/21 00:39:36;;;;;;;27.30;14.90;;;;;;;-1.90;100.00;101821.05;106037;1252;72760;-75
2024/01/21 00:42:03;;;;;;;30.60;16.40;;;;;;;-1.94;100.00;101820.83;105984;1253;61991;-76
2024/01/21 00:44:36;;;;;;;39.60;19.30;;;;;;;-1.99;100.00;101820.94;106088;1251;60427;-77
2024/01/21 00:47:03;;;;;;;37.80;20.30;;;;;;;-2.03;100.00;101823.80;106067;1249;73798;-75
2024/01/21 00:49:30;;;;;;;39.20;20.40;;;;;;;-2.07;100.00;101822.05;106135;1249;63056;-77
2024/01/21 00:51:58;;;;;;;37.60;21.20;;;;;;;-2.12;100.00;101823.20;106720;1251;71190;-74
2024/01/21 00:54:25;;;;;;;32.90;18.40;;;;;;;-2.16;100.00;101821.95;108068;1251;60421;-74
2024/01/21 00:56:52;;;;;;;37.30;17.80;;;;;;;-2.22;100.00;101819.31;108298;1251;59256;-73
2024/01/21 00:59:19;;;;;;;28.20;14.10;;;;;;;-2.27;100.00;101812.23;109213;1251;72792;-73
2024/01/21 01:01:46;;;;;;;22.20;12.50;;;;;;;-2.31;100.00;101813.55;108116;1251;62224;-75
2024/01/21 01:04:13;;;;;;;22.10;13.00;;;;;;;-2.34;100.00;101818.65;105940;1254;72709;-74
2024/01/21 01:06:41;;;;;;;28.70;16.60;;;;;;;-2.36;100.00;101824.95;106013;1254;61984;-75
2024/01/21 01:09:07;;;;;;;20.20;11.90;;;;;;;-2.40;100.00;101825.59;106011;1254;60335;-76
2024/01/21 01:11:35;;;;;;;19.20;10.30;;;;;;;-2.45;100.00;101828.09;106018;1251;73855;-75
2024/01/21 01:14:02;;;;;;;24.00;12.30;;;;;;;-2.54;100.00;101829.52;106011;1254;62910;-76
2024/01/21 01:16:29;;;;;;;23.10;12.70;;;;;;;-2.62;100.00;101829.24;105994;1254;72755;-78
2024/01/21 01:18:57;;;;;;;21.70;12.30;;;;;;;-2.67;100.00;101828.31;105977;1254;62076;-74
2024/01/21 01:21:24;;;;;;;21.30;11.90;;;;;;;-2.70;100.00;101825.19;105935;1250;60548;-77
2024/01/21 01:23:51;;;;;;;21.50;11.20;;;;;;;-2.74;100.00;101823.42;106006;1254;71674;-77
2024/01/21 01:26:18;;;;;;;19.50;11.20;;;;;;;-2.77;100.00;101822.70;105957;1254;63772;-77
2024/01/21 01:28:45;;;;;;;17.60;10.90;;;;;;;-2.79;100.00;101826.08;105940;1251;72653;-76
2024/01/21 01:31:22;;;;;;;19.80;12.20;;;;;;;-2.83;100.00;101826.90;105892;1254;61899;-75
2024/01/21 01:33:49;;;;;;;16.00;10.70;;;;;;;-2.85;100.00;101828.05;105925;1251;60435;-76
2024/01/21 01:36:16;;;;;;;18.40;11.70;;;;;;;-2.88;100.00;101827.33;105913;1252;73843;-76
2024/01/21 01:38:42;;;;;;;22.00;10.90;;;;;;;-2.90;100.00;101830.39;105946;1251;61289;-75
2024/01/21 01:41:10;;;;;;;19.00;12.10;;;;;;;-2.93;100.00;101823.83;105916;1251;72483;-76
2024/01/21 01:43:37;;;;;;;20.60;12.20;;;;;;;-2.96;100.00;101826.54;105844;1254;62114;-75
2024/01/21 01:46:05;;;;;;;21.40;14.60;;;;;;;-2.98;100.00;101825.81;105890;1254;60396;-75
2024/01/21 01:48:32;;;;;;;22.40;12.30;;;;;;;-3.00;100.00;101823.23;105978;1251;72549;-75
2024/01/21 01:51:00;;;;;;;19.00;11.90;;;;;;;-3.01;100.00;101829.70;106006;1254;63824;-77
2024/01/21 01:53:28;;;;;;;20.30;11.90;;;;;;;-3.02;100.00;101830.21;105953;1254;72620;-76
2024/01/21 01:55:55;;;;;;;19.90;12.80;;;;;;;-3.02;100.00;101827.46;105961;1255;60535;-76
2024/01/21 01:58:23;;;;;;;20.10;11.90;;;;;;;-3.03;100.00;101822.32;105953;1251;60453;-75
2024/01/21 02:00:52;;;;;;;21.70;11.20;;;;;;;-3.03;100.00;101824.37;105846;1251;72304;-77
2024/01/21 02:03:19;;;;;;;20.30;13.00;;;;;;;-3.02;100.00;101822.16;105932;1255;63701;-76
2024/01/21 02:05:45;;;;;;;22.10;13.50;;;;;;;-3.02;100.00;101825.06;105905;1251;72652;-77
2024/01/21 02:08:12;;;;;;;19.80;10.30;;;;;;;-3.03;100.00;101829.16;105862;1256;60472;-76
2024/01/21 02:10:39;;;;;;;19.40;10.80;;;;;;;-3.03;100.00;101831.21;105832;1254;60463;-74
2024/01/21 02:13:06;;;;;;;15.40;10.30;;;;;;;-3.02;100.00;101831.58;105875;1254;73805;-76
2024/01/21 02:15:33;;;;;;;18.90;10.10;;;;;;;-3.02;100.00;101835.34;105972;1254;63919;-74
2024/01/21 02:18:00;;;;;;;16.10;9.20;;;;;;;-3.02;100.00;101841.67;105884;1251;72414;-76
2024/01/21 02:20:27;;;;;;;17.30;11.10;;;;;;;-3.04;100.00;101844.03;105951;1254;61921;-74
2024/01/21 02:22:57;;;;;;;20.40;11.90;;;;;;;-3.06;100.00;101847.93;105906;1254;60431;-76
2024/01/21 02:25:23;;;;;;;28.40;13.40;;;;;;;-3.10;100.00;101855.74;106097;1251;72393;-74
2024/01/21 02:27:50;;;;;;;25.40;12.70;;;;;;;-3.13;100.00;101862.17;105890;1251;63953;-75
2024/01/21 02:30:17;;;;;;;22.10;11.60;;;;;;;-3.17;100.00;101865.04;105902;1251;72494;-75
2024/01/21 02:32:46;;;;;;;17.80;9.60;;;;;;;-3.18;100.00;101867.90;105915;1254;62134;-75
2024/01/21 02:35:13;;;;;;;16.20;9.70;;;;;;;-3.20;100.00;101873.35;105799;1251;60485;-74
2024/01/21 02:37:41;;;;;;;21.00;11.80;;;;;;;-3.22;100.00;101868.54;105944;1254;73556;-74
2024/01/21 02:40:09;;;;;;;18.40;13.40;;;;;;;-3.21;100.00;101874.19;105971;1254;62360;-74
2024/01/21 02:42:36;;;;;;;45.10;24.70;;;;;;;-3.20;100.00;101871.14;105958;1251;72374;-74
2024/01/21 02:45:03;;;;;;;19.90;12.20;;;;;;;-3.17;100.00;101869.98;105866;1254;60563;-74
2024/01/21 02:47:31;;;;;;;17.40;10.70;;;;;;;-3.13;100.00;101875.88;105930;1251;60443;-75
2024/01/21 02:49:58;;;;;;;13.80;9.60;;;;;;;-3.10;100.00;101880.54;105929;1250;73815;-76
2024/01/21 02:52:26;;;;;;;16.90;9.70;;;;;;;-3.05;100.00;101880.77;105934;1254;63694;-74
2024/01/21 02:54:53;;;;;;;14.40;9.90;;;;;;;-3.01;100.00;101881.19;105894;1251;72446;-76
2024/01/21 02:57:21;;;;;;;15.50;9.40;;;;;;;-2.98;100.00;101885.17;105891;1251;61802;-76
2024/01/21 02:59:47;;;;;;;17.20;9.70;;;;;;;-2.95;100.00;101887.28;105862;1254;60370;-75
2024/01/21 03:02:14;;;;;;;14.90;8.70;;;;;;;-2.93;100.00;101884.73;105866;1251;73985;-74
2024/01/21 03:04:41;;;;;;;12.70;8.60;;;;;;;-2.90;100.00;101881.87;105843;1252;62308;-74
2024/01/21 03:07:08;;;;;;;14.90;9.40;;;;;;;-2.88;100.00;101879.67;105864;1251;72565;-75
2024/01/21 03:09:35;;;;;;;15.80;8.50;;;;;;;-2.85;100.00;101880.24;105802;1254;61948;-75
2024/01/21 03:12:02;;;;;;;12.30;8.60;;;;;;;-2.83;100.00;101874.80;105920;1254;60434;-75
2024/01/21 03:14:29;;;;;;;21.20;11.90;;;;;;;-2.83;100.00;101873.26;105948;1251;73735;-75
2024/01/21 03:16:57;;;;;;;20.50;11.50;;;;;;;-2.83;100.00;101871.71;105897;1254;63855;-75
2024/01/21 03:19:23;;;;;;;15.40;10.00;;;;;;;-2.82;100.00;101872.94;105892;1251;71614;-75
2024/01/21 03:21:51;;;;;;;15.10;8.60;;;;;;;-2.81;100.00;101869.36;105996;1251;62508;-75
2024/01/21 03:24:19;;;;;;;13.60;9.10;;;;;;;-2.78;100.00;101872.31;105971;1254;60405;-75
2024/01/21 03:26:46;;;;;;;12.30;8.90;;;;;;;-2.75;100.00;101879.55;105895;1254;73918;-75
2024/01/21 03:29:13;;;;;;;10.80;7.70;;;;;;;-2.72;100.00;101878.73;105847;1254;63783;-75
2024/01/21 03:31:40;;;;;;;14.60;8.00;;;;;;;-2.68;100.00;101878.80;105959;1254;72648;-76
2024/01/21 03:34:06;;;;;;;9.60;6.50;;;;;;;-2.64;100.00;101876.45;105903;1254;60565;-74
2024/01/21 03:36:34;;;;;;;13.60;8.00;;;;;;;-2.61;100.00;101877.35;105892;1251;60476;-76
2024/01/21 03:39:01;;;;;;;15.80;8.80;;;;;;;-2.58;100.00;101877.40;106024;1250;73831;-75
2024/01/21 03:41:29;;;;;;;19.20;13.00;;;;;;;-2.55;100.00;101874.36;105862;1250;63831;-75
2024/01/21 03:43:57;;;;;;;15.90;9.30;;;;;;;-2.53;100.00;101871.98;105861;1251;72674;-75
2024/01/21 03:46:24;;;;;;;14.60;8.20;;;;;;;-2.51;100.00;101869.79;105855;1251;60568;-76
2024/01/21 03:48:51;;;;;;;16.60;9.70;;;;;;;-2.50;100.00;101868.27;105922;1251;60418;-74
2024/01/21 03:51:17;;;;;;;18.30;8.80;;;;;;;-2.50;100.00;101870.66;105846;1251;72467;-77
2024/01/21 03:53:45;;;;;;;17.20;9.30;;;;;;;-2.49;100.00;101866.23;105905;1250;63844;-74
2024/01/21 03:56:18;;;;;;;14.90;8.40;;;;;;;-2.45;100.00;101870.55;106036;1254;73378;-75
2024/01/21 03:58:45;;;;;;;18.30;9.50;;;;;;;-2.43;100.00;101866.14;105855;1251;60453;-75
2024/01/21 04:01:12;;;;;;;22.90;11.70;;;;;;;-2.39;100.00;101868.92;105879;1251;60364;-75
2024/01/21 04:03:38;;;;;;;17.40;11.30;;;;;;;-2.36;100.00;101862.29;105871;1251;72229;-76
2024/01/21 04:06:05;;;;;;;20.40;11.70;;;;;;;-2.32;100.00;101862.17;105865;1251;63703;-75
2024/01/21 04:08:33;;;;;;;15.80;10.90;;;;;;;-2.28;100.00;101862.75;105909;1251;72607;-77
2024/01/21 04:11:01;;;;;;;18.30;9.50;;;;;;;-2.24;100.00;101868.27;106000;1250;60987;-75
2024/01/21 04:13:28;;;;;;;15.50;9.40;;;;;;;-2.19;100.00;101868.68;105884;1251;62340;-77
2024/01/21 04:15:55;;;;;;;11.50;8.60;;;;;;;-2.14;100.00;101873.71;105937;1251;72365;-75
2024/01/21 04:18:22;;;;;;;13.80;9.30;;;;;;;-2.12;100.00;101874.41;105933;1251;62424;-75
2024/01/21 04:20:49;;;;;;;16.20;8.60;;;;;;;-2.09;100.00;101875.66;105846;1251;72422;-75
2024/01/21 04:23:16;;;;;;;10.70;8.50;;;;;;;-2.05;100.00;101881.36;106001;1251;60446;-77
2024/01/21 04:25:44;;;;;;;16.90;8.80;;;;;;;-2.00;100.00;101892.03;106000;1254;60434;-75
2024/01/21 04:28:11;;;;;;;14.70;9.10;;;;;;;-1.96;100.00;101897.23;105868;1251;72698;-74
2024/01/21 04:30:39;;;;;;;17.20;9.30;;;;;;;-1.91;100.00;101890.61;105849;1251;62300;-73
2024/01/21 04:33:06;;;;;;;13.70;9.50;;;;;;;-1.92;100.00;101885.63;105890;1251;72541;-74
2024/01/21 04:35:33;;;;;;;15.30;9.10;;;;;;;-1.96;100.00;101885.76;105934;1250;60988;-75
2024/01/21 04:38:01;;;;;;;17.90;11.20;;;;;;;-1.97;100.00;101883.86;105853;1251;60523;-75
2024/01/21 04:40:29;;;;;;;17.50;10.50;;;;;;;-1.94;100.00;101881.16;105977;1251;73583;-76
2024/01/21 04:42:56;;;;;;;16.20;10.10;;;;;;;-1.96;100.00;101882.33;107812;1251;62314;-75
2024/01/21 04:45:23;;;;;;;15.70;10.20;;;;;;;-1.98;100.00;101890.36;108352;1251;71273;-73
2024/01/21 04:47:50;;;;;;;16.80;9.90;;;;;;;-1.95;100.00;101895.35;108928;1251;59649;-72
2024/01/21 04:50:17;;;;;;;16.40;9.90;;;;;;;-1.90;100.00;101895.59;108800;1251;60318;-71
2024/01/21 04:52:43;;;;;;;17.00;10.50;;;;;;;-1.84;100.00;101901.48;106692;1251;72616;-75
2024/01/21 04:55:10;;;;;;;16.40;10.80;;;;;;;-1.80;100.00;101918.68;106015;1251;62253;-75
2024/01/21 04:57:38;;;;;;;18.10;11.50;;;;;;;-1.74;100.00;101925.42;106126;1251;72631;-75
2024/01/21 05:00:06;;;;;;;17.90;10.50;;;;;;;-1.68;100.00;101924.64;105963;1254;60467;-78
2024/01/21 05:02:33;;;;;;;21.20;11.30;;;;;;;-1.62;100.00;101924.71;106027;1250;60452;-74
2024/01/21 05:05:00;;;;;;;13.00;8.80;;;;;;;-1.61;100.00;101923.54;105962;1251;73677;-77
2024/01/21 05:07:26;;;;;;;19.50;9.40;;;;;;;-1.61;100.00;101929.89;105954;1251;62346;-75
2024/01/21 05:09:56;;;;;;;13.80;10.70;;;;;;;-1.56;100.00;101929.77;105929;1251;73110;-75
2024/01/21 05:12:23;;;;;;;17.20;10.50;;;;;;;-1.51;100.00;101927.92;105888;1250;60946;-74
2024/01/21 05:14:50;;;;;;;15.90;9.40;;;;;;;-1.47;100.00;101934.31;105989;1252;60482;-74
2024/01/21 05:17:17;;;;;;;16.70;9.40;;;;;;;-1.44;100.00;101933.50;105903;1251;73879;-74
2024/01/21 05:19:44;;;;;;;14.80;9.50;;;;;;;-1.42;100.00;101934.02;105974;1254;63904;-75
2024/01/21 05:22:13;;;;;;;15.30;10.40;;;;;;;-1.42;100.00;101936.09;105883;1251;72649;-75
2024/01/21 05:24:40;;;;;;;12.20;8.20;;;;;;;-1.41;100.00;101937.98;105955;1254;60351;-76
2024/01/21 05:27:06;;;;;;;14.50;9.00;;;;;;;-1.42;100.00;101945.34;105915;1251;60543;-77
2024/01/21 05:29:33;;;;;;;11.80;8.10;;;;;;;-1.42;100.00;101944.83;106009;1251;73825;-76
2024/01/21 05:32:04;;;;;;;16.60;10.40;;;;;;;-1.41;100.00;101946.38;106007;1254;63631;-76
2024/01/21 05:34:31;;;;;;;15.80;9.90;;;;;;;-1.40;100.00;101950.69;105952;1251;72702;-74
2024/01/21 05:36:57;;;;;;;21.50;10.00;;;;;;;-1.41;100.00;101954.10;105967;1254;61209;-76
2024/01/21 05:39:25;;;;;;;17.30;9.00;;;;;;;-1.42;100.00;101959.40;105898;1254;60434;-74
2024/01/21 05:42:09;;;;;;;16.90;9.80;;;;;;;-1.42;100.00;101959.04;105897;1251;73837;-75
2024/01/21 05:44:36;;;;;;;17.60;10.50;;;;;;;-1.46;100.00;101960.38;105935;1252;62430;-76
2024/01/21 05:47:03;;;;;;;14.80;9.10;;;;;;;-1.51;100.00;101956.73;105921;1251;71008;-76
2024/01/21 05:49:30;;;;;;;15.10;9.20;;;;;;;-1.56;100.00;101956.50;105835;1254;61030;-76
2024/01/21 05:51:57;;;;;;;15.50;8.70;;;;;;;-1.59;100.00;101956.65;105982;1251;60540;-76
2024/01/21 05:54:25;;;;;;;14.00;8.00;;;;;;;-1.60;100.00;101957.65;105941;1254;73564;-77
2024/01/21 05:56:52;;;;;;;12.60;9.40;;;;;;;-1.61;100.00;101958.16;105943;1254;63635;-75
2024/01/21 05:59:20;;;;;;;15.40;9.10;;;;;;;-1.62;100.00;101956.10;105880;1251;71608;-76
2024/01/21 06:01:48;;;;;;;14.10;10.40;;;;;;;-1.62;100.00;101950.59;105959;1254;60417;-75
2024/01/21 06:04:17;;;;;;;21.60;12.40;;;;;;;-1.63;100.00;101945.27;106063;1251;60326;-76
2024/01/21 06:06:44;;;;;;;19.20;11.60;;;;;;;-1.64;100.00;101945.62;105977;1251;72501;-76
2024/01/21 06:09:11;;;;;;;18.40;11.10;;;;;;;-1.66;100.00;101947.83;105853;1251;62837;-77
2024/01/21 06:11:39;;;;;;;14.20;9.90;;;;;;;-1.69;100.00;101946.07;105937;1251;72714;-76
2024/01/21 06:14:06;;;;;;;14.30;10.00;;;;;;;-1.69;100.00;101954.48;105942;1255;60955;-77
2024/01/21 06:16:33;;;;;;;22.10;11.80;;;;;;;-1.69;100.00;101962.88;105819;1254;60403;-77
2024/01/21 06:19:00;;;;;;;16.20;10.60;;;;;;;-1.68;100.00;101960.65;105972;1251;73722;-76
2024/01/21 06:21:27;;;;;;;30.40;14.70;;;;;;;-1.67;100.00;101962.21;105965;1254;63684;-75
2024/01/21 06:23:54;;;;;;;34.40;15.50;;;;;;;-1.64;100.00;101962.59;105762;1251;70813;-75
2024/01/21 06:26:22;;;;;;;28.60;14.90;;;;;;;-1.64;100.00;101962.25;105894;1256;60530;-76
2024/01/21 06:28:50;;;;;;;30.10;13.20;;;;;;;-1.63;100.00;101959.16;105972;1251;60539;-74
2024/01/21 06:31:17;;;;;;;22.90;12.20;;;;;;;-1.61;100.00;101971.54;106001;1257;73705;-75
2024/01/21 06:33:45;;;;;;;19.80;12.00;;;;;;;-1.57;100.00;101979.64;105926;1254;63833;-75
2024/01/21 06:36:12;;;;;;;22.40;12.30;;;;;;;-1.55;100.00;101987.73;105884;1250;71234;-76
2024/01/21 06:38:39;;;;;;;16.50;10.70;;;;;;;-1.51;100.00;101991.22;105897;1256;61033;-74
2024/01/21 06:41:06;;;;;;;18.10;11.10;;;;;;;-1.46;100.00;101990.59;105835;1251;60374;-74
2024/01/21 06:43:33;;;;;;;18.80;12.40;;;;;;;-1.45;100.00;101986.48;105887;1252;73817;-75
2024/01/21 06:46:00;;;;;;;24.60;13.00;;;;;;;-1.42;100.00;101982.21;105959;1254;64007;-76
2024/01/21 06:48:27;;;;;;;24.10;12.30;;;;;;;-1.37;100.00;101988.11;105839;1251;72578;-76
2024/01/21 06:50:54;;;;;;;20.80;11.50;;;;;;;-1.30;100.00;101993.33;105930;1255;61017;-74
2024/01/21 06:53:22;;;;;;;19.60;11.10;;;;;;;-1.25;100.00;101998.02;105784;1254;61035;-76
2024/01/21 06:55:49;;;;;;;18.30;10.90;;;;;;;-1.22;100.00;101997.01;105874;1251;73843;-76
2024/01/21 06:58:16;;;;;;;19.30;11.50;;;;;;;-1.23;100.00;101997.18;106059;1254;62374;-75
2024/01/21 07:00:50;;;;;;;14.70;10.10;;;;;;;-1.22;100.00;102001.48;105854;1251;71185;-74
2024/01/21 07:03:19;;;;;;;18.80;10.00;;;;;;;-1.23;100.00;101997.02;106005;1254;60374;-77
2024/01/21 07:05:46;;;;;;;15.30;10.90;;;;;;;-1.26;100.00;101994.24;105900;1251;60558;-75
2024/01/21 07:08:14;;;;;;;14.80;10.00;;;;;;;-1.25;100.00;101994.23;105970;1251;72610;-74
2024/01/21 07:10:41;;;;;;;15.60;9.40;;;;;;;-1.23;100.00;101998.90;105940;1251;61419;-75
2024/01/21 07:13:08;;;;;;;18.30;10.00;;;;;;;-1.23;100.00;101998.21;105962;1254;71656;-77
2024/01/21 07:15:34;;;;;;;14.90;9.50;;;;;;;-1.21;100.00;101996.86;105784;1256;60629;-76
2024/01/21 07:18:01;;;;;;;21.00;11.60;;;;;;;-1.17;100.00;102005.98;105843;1255;60434;-76
2024/01/21 07:20:28;;;;;;;18.10;10.40;;;;;;;-1.14;100.00;102001.91;105841;1251;73760;-76
2024/01/21 07:22:56;;;;;;;18.00;10.10;;;;;;;-1.13;100.00;102000.39;105875;1254;62958;-77
2024/01/21 07:25:22;;;;;;;15.30;9.90;;;;;;;-1.13;100.00;102004.33;105865;1251;71041;-78
2024/01/21 07:27:50;;;;;;;15.10;9.80;;;;;;;-1.14;100.00;102001.91;106000;1254;62024;-75
2024/01/21 07:30:17;;;;;;;17.20;11.50;;;;;;;-1.14;100.00;102007.91;106065;1254;60427;-75
2024/01/21 07:32:44;;;;;;;24.30;13.00;;;;;;;-1.13;100.00;102007.95;105830;1251;72774;-76
2024/01/21 07:35:11;;;;;;;26.60;15.20;;;;;;;-1.11;100.00;102011.73;106034;1251;62393;-77
2024/01/21 07:37:38;;;;;;;14.70;10.10;;;;;;;-1.08;100.00;102017.41;105879;1251;71531;-76
2024/01/21 07:40:06;;;;;;;17.50;11.20;;;;;;;-1.07;100.00;102017.44;105868;1256;61123;-77
2024/01/21 07:42:33;;;;;;;14.50;9.30;;;;;;;-1.08;100.00;102015.54;106067;1251;60447;-75
2024/01/21 07:45:00;;;;;;;14.00;10.30;;;;;;;-1.10;100.00;102020.32;105878;1257;73594;-76
2024/01/21 07:47:28;;;;;;;14.50;10.40;;;;;;;-1.13;100.00;102015.14;105835;1255;63829;-76
2024/01/21 07:49:55;;;;;;;17.70;11.30;;;;;;;-1.14;100.00;102019.41;106012;1251;72665;-77
2024/01/21 07:52:22;;;;;;;15.50;10.10;;;;;;;-1.13;100.00;102019.27;105855;1254;60487;-75
2024/01/21 07:54:49;;;;;;;15.10;9.50;;;;;;;-1.11;100.00;102022.20;105795;1252;60392;-76
2024/01/21 07:57:16;;;;;;;18.50;11.00;;;;;;;-1.09;100.00;102022.06;106044;1251;73833;-76
2024/01/21 07:59:43;;;;;;;19.50;13.00;;;;;;;-1.06;100.00;102023.28;105992;1256;63877;-74
2024/01/21 08:02:10;;;;;;;18.10;11.10;;;;;;;-1.00;100.00;102035.02;105940;1251;72738;-74
2024/01/21 08:04:38;;;;;;;20.50;11.50;;;;;;;-0.96;100.00;102042.77;105784;1254;61216;-75
2024/01/21 08:07:04;;;;;;;18.50;11.90;;;;;;;-0.96;100.00;102040.02;105967;1252;60748;-75
2024/01/21 08:09:40;;;;;;;21.30;11.30;;;;;;;-0.97;100.00;102033.66;105737;1256;251567;-75
2024/01/21 08:13:53;;;;;;;22.40;13.20;;;;;;;-0.96;100.00;102025.44;102732;1288;603707;-76
2024/01/21 08:16:21;;;;;;;19.70;12.70;;;;;;;-0.97;100.00;102024.39;105005;1270;61103;-76
2024/01/21 08:18:48;;;;;;;21.60;13.10;;;;;;;-0.96;100.00;102026.98;105401;1264;59346;-76
2024/01/21 08:21:15;;;;;;;22.70;14.20;;;;;;;-0.95;100.00;102031.98;105203;1267;72313;-76
2024/01/21 08:23:42;;;;;;;19.70;11.60;;;;;;;-0.95;100.00;102035.07;105215;1262;62803;-76
2024/01/21 08:26:10;;;;;;;18.30;11.90;;;;;;;-0.96;100.00;102036.08;105632;1260;185612;-77
2024/01/21 08:28:37;;;;;;;18.60;13.00;;;;;;;-0.95;100.00;102033.52;105772;1257;60131;-76
2024/01/21 08:31:04;;;;;;;18.90;12.80;;;;;;;-0.91;100.00;102036.30;105876;1255;60194;-76
2024/01/21 08:33:34;;;;;;;21.30;13.40;;;;;;;-0.85;100.00;102031.91;106200;1254;72256;-78
2024/01/21 08:36:02;;;;;;;22.10;13.80;;;;;;;-0.79;100.00;102033.84;106801;1254;63738;-75
2024/01/21 08:38:29;;;;;;;21.00;13.20;;;;;;;-0.76;100.00;102032.33;109163;1254;71375;-76
2024/01/21 08:40:56;;;;;;;20.30;13.80;;;;;;;-0.74;100.00;102029.09;107053;1257;61197;-74
2024/01/21 08:43:23;;;;;;;22.30;11.70;;;;;;;-0.71;100.00;102033.76;105833;1254;61394;-75
2024/01/21 08:45:50;;;;;;;19.40;13.10;;;;;;;-0.69;100.00;102030.68;105742;1257;71961;-76
2024/01/21 08:48:20;;;;;;;20.10;13.20;;;;;;;-0.70;100.00;102022.09;105783;1257;63792;-75
2024/01/21 08:50:50;;;;;;;28.70;16.10;;;;;;;-0.70;100.00;102025.86;106047;1254;71451;-75
2024/01/21 08:53:17;;;;;;;30.50;18.90;;;;;;;-0.70;100.00;102028.79;106044;1253;61132;-76
2024/01/21 08:55:44;;;;;;;28.80;18.00;;;;;;;-0.67;100.00;102026.41;106055;1250;60405;-74
2024/01/21 08:58:11;;;;;;;23.50;15.10;;;;;;;-0.62;100.00;102027.98;106044;1250;72107;-75
2024/01/21 09:00:38;;;;;;;22.20;15.60;;;;;;;-0.58;100.00;102030.59;106032;1253;62959;-76
2024/01/21 09:03:05;;;;;;;21.60;13.70;;;;;;;-0.56;100.00;102035.44;105954;1250;71654;-76
2024/01/21 09:05:32;;;;;;;24.30;14.00;;;;;;;-0.56;100.00;102031.65;105971;1254;61262;-76
2024/01/21 09:07:59;;;;;;;23.90;14.20;;;;;;;-0.55;100.00;102026.86;106114;1253;59518;-76
2024/01/21 09:10:25;;;;;;;27.00;15.20;;;;;;;-0.53;100.00;102025.84;106030;1254;72932;-75
2024/01/21 09:12:52;;;;;;;23.00;15.40;;;;;;;-0.53;100.00;102026.37;105947;1251;62702;-76
2024/01/21 09:15:21;;;;;;;25.30;15.50;;;;;;;-0.50;100.00;102026.39;105982;1254;72560;-75
2024/01/21 09:17:49;;;;;;;24.40;15.20;;;;;;;-0.47;100.00;102030.02;105991;1254;61108;-75
2024/01/21 09:20:16;;;;;;;24.50;14.60;;;;;;;-0.48;100.00;102024.17;105968;1253;59653;-77
2024/01/21 09:22:43;;;;;;;26.20;16.50;;;;;;;-0.50;100.00;102026.73;105938;1254;71576;-75
2024/01/21 09:25:10;;;;;;;26.70;15.80;;;;;;;-0.49;100.00;102025.18;105919;1253;63558;-75
2024/01/21 09:27:37;;;;;;;35.60;17.20;;;;;;;-0.46;100.00;102024.53;105904;1254;73329;-75
2024/01/21 09:30:04;;;;;;;28.50;15.20;;;;;;;-0.48;100.00;102026.05;105954;1253;60140;-76
2024/01/21 09:32:31;;;;;;;24.00;15.70;;;;;;;-0.48;100.00;102026.41;105996;1251;60237;-75
2024/01/21 09:34:59;;;;;;;24.20;14.20;;;;;;;-0.49;100.00;102026.23;105988;1253;73044;-75
2024/01/21 09:37:26;;;;;;;25.40;15.00;;;;;;;-0.50;100.00;102028.45;105907;1254;63990;-75
2024/01/21 09:39:56;;;;;;;32.20;17.20;;;;;;;-0.52;100.00;102032.20;106024;1254;72772;-75
2024/01/21 09:42:22;;;;;;;28.70;16.30;;;;;;;-0.53;100.00;102030.31;105913;1254;61125;-75
2024/01/21 09:44:49;;;;;;;27.50;15.80;;;;;;;-0.51;100.00;102033.08;105953;1253;59567;-74
2024/01/21 09:47:17;;;;;;;27.90;17.50;;;;;;;-0.46;100.00;102032.61;105995;1251;71552;-76
2024/01/21 09:49:44;;;;;;;27.50;16.60;;;;;;;-0.40;100.00;102034.72;105885;1256;62317;-75
2024/01/21 09:52:12;;;;;;;21.30;15.70;;;;;;;-0.35;100.00;102035.61;105928;1257;72607;-75
2024/01/21 09:54:39;;;;;;;33.60;17.80;;;;;;;-0.31;100.00;102038.23;106012;1253;60950;-76
2024/01/21 09:57:07;;;;;;;27.90;17.90;;;;;;;-0.27;100.00;102040.84;105934;1257;59569;-74
2024/01/21 09:59:34;;;;;;;24.00;13.40;;;;;;;-0.25;100.00;102044.45;105820;1250;72850;-73
2024/01/21 10:02:01;;;;;;;25.50;14.30;;;;;;;-0.26;100.00;102043.42;106025;1250;62348;-74
2024/01/21 10:04:28;;;;;;;19.80;13.20;;;;;;;-0.30;100.00;102043.55;105991;1254;72536;-76
2024/01/21 10:06:55;;;;;;;28.10;16.10;;;;;;;-0.32;100.00;102043.20;105967;1262;60954;-74
2024/01/21 10:09:22;;;;;;;28.40;16.90;;;;;;;-0.31;100.00;102042.35;105992;1254;59564;-76
2024/01/21 10:11:58;;;;;;;22.20;15.00;;;;;;;-0.27;100.00;102042.38;105848;1257;71930;-75
2024/01/21 10:14:26;;;;;;;26.60;16.10;;;;;;;-0.24;100.00;102044.30;105980;1256;63991;-75
2024/01/21 10:16:55;;;;;;;23.20;16.20;;;;;;;-0.21;100.00;102045.34;106014;1254;72587;-74
2024/01/21 10:19:33;;;;;;;41.40;20.80;;;;;;;-0.16;100.00;102042.98;106047;1253;60890;-75
2024/01/21 10:22:14;;;;;;;26.50;17.60;;;;;;;-0.11;100.00;102043.18;106089;1251;61010;-76
2024/01/21 10:24:42;;;;;;;23.70;16.50;;;;;;;-0.06;100.00;102043.73;106068;1250;72893;-75
2024/01/21 10:27:10;;;;;;;19.80;13.70;;;;;;;-0.04;100.00;102040.83;106244;1254;63918;-76
2024/01/21 10:29:43;;;;;;;20.90;12.80;;;;;;;-0.05;100.00;102044.42;106089;1254;72630;-75
2024/01/21 10:32:14;;;;;;;22.70;13.20;;;;;;;-0.04;100.00;102047.19;106038;1251;59691;-75
2024/01/21 10:34:44;;;;;;;21.00;13.10;;;;;;;-0.03;100.00;102047.20;106022;1251;59548;-76
2024/01/21 10:37:15;;;;;;;22.80;12.80;;;;;;;0.04;100.00;102054.11;105982;1253;72979;-78
2024/01/21 10:39:48;;;;;;;19.60;13.80;;;;;;;0.10;100.00;102051.91;105895;1254;63813;-76
2024/01/21 10:42:16;;;;;;;22.50;16.30;;;;;;;0.17;100.00;102047.49;106015;1254;70124;-77
2024/01/21 10:44:44;;;;;;;28.50;18.00;;;;;;;0.24;100.00;102047.36;106065;1253;60902;-76
2024/01/21 10:47:12;;;;;;;21.60;15.50;;;;;;;0.32;100.00;102048.27;106018;1254;60079;-76
2024/01/21 10:49:39;;;;;;;23.70;14.80;;;;;;;0.37;100.00;102048.98;106017;1251;72094;-76
2024/01/21 10:52:08;;;;;;;23.60;16.20;;;;;;;0.43;100.00;102043.67;106105;1254;63755;-76
2024/01/21 10:54:37;;;;;;;27.70;17.40;;;;;;;0.49;100.00;102045.43;106065;1250;71451;-76
2024/01/21 10:57:04;;;;;;;24.10;15.70;;;;;;;0.55;100.00;102045.64;106054;1251;59977;-75
2024/01/21 10:59:34;;;;;;;32.10;20.80;;;;;;;0.59;100.00;102044.77;106091;1263;59545;-76